Time;durP1;ratioP1;P1;durP2;ratioP2;P2;SDS_P1;SDS_P2;PMS_P1;PMS_P2;Temp;Humidity;BMP_temperature;BMP_pressure;BME280_temperature;BME280_humidity;BME280_pressure;Samples;Min_cycle;Max_cycle;Signal;HPM_P1;HPM_P2
2022/09/27 00:01:54;;;;;;;1.23;1.23;;;20.20;62.20;;;;;;5061152;28;43945;-74
2022/09/27 00:04:22;;;;;;;1.40;1.40;;;20.20;62.40;;;;;;5060081;28;44710;-77
2022/09/27 00:06:50;;;;;;;1.23;1.23;;;20.20;62.60;;;;;;5035487;28;43439;-77
2022/09/27 00:09:18;;;;;;;1.37;1.37;;;20.10;62.40;;;;;;5060702;28;43472;-77
2022/09/27 00:11:47;;;;;;;1.40;1.40;;;20.20;62.50;;;;;;5042220;28;45564;-77
2022/09/27 00:14:15;;;;;;;1.30;1.30;;;20.10;62.40;;;;;;5065247;28;44918;-78
2022/09/27 00:16:44;;;;;;;1.40;1.40;;;20.10;62.50;;;;;;5057798;28;43414;-76
2022/09/27 00:19:14;;;;;;;1.67;1.30;;;20.10;62.70;;;;;;5053675;28;43396;-77
2022/09/27 00:21:43;;;;;;;1.27;1.27;;;20.10;62.70;;;;;;5062968;28;46091;-75
2022/09/27 00:24:12;;;;;;;1.50;1.50;;;20.20;62.50;;;;;;5041927;28;44976;-76
2022/09/27 00:26:40;;;;;;;1.40;1.30;;;20.30;62.20;;;;;;5051795;28;43426;-77
2022/09/27 00:29:09;;;;;;;1.27;1.27;;;20.40;61.70;;;;;;5064133;28;43524;-78
2022/09/27 00:31:37;;;;;;;1.33;1.33;;;20.50;61.50;;;;;;5054222;28;43922;-75
2022/09/27 00:34:06;;;;;;;1.47;1.47;;;20.50;61.30;;;;;;5050749;28;43480;-77
2022/09/27 00:36:35;;;;;;;1.20;1.20;;;20.40;61.50;;;;;;5064650;28;43418;-76
2022/09/27 00:39:04;;;;;;;1.40;1.40;;;20.30;62.40;;;;;;5055501;28;43456;-75
2022/09/27 00:41:33;;;;;;;1.47;1.47;;;20.30;62.00;;;;;;5052582;28;43726;-75
2022/09/27 00:44:03;;;;;;;1.60;1.60;;;20.20;62.30;;;;;;5052126;28;43436;-76
2022/09/27 00:46:33;;;;;;;1.30;1.30;;;20.20;62.20;;;;;;5064291;28;43400;-75
2022/09/27 00:49:05;;;;;;;1.30;1.30;;;20.20;62.30;;;;;;5056372;28;43451;-75
2022/09/27 00:51:35;;;;;;;1.20;1.20;;;20.10;62.30;;;;;;5054107;28;43896;-77
2022/09/27 00:54:03;;;;;;;1.40;1.40;;;20.10;62.40;;;;;;5045911;28;45509;-77
2022/09/27 00:56:32;;;;;;;1.47;1.47;;;20.10;62.70;;;;;;5053942;28;43862;-76
2022/09/27 00:59:03;;;;;;;1.43;1.43;;;20.10;62.50;;;;;;5053923;28;43494;-75
2022/09/27 01:01:31;;;;;;;1.20;1.20;;;20.00;63.10;;;;;;5059531;28;43944;-73
2022/09/27 01:04:01;;;;;;;1.10;1.10;;;20.00;62.50;;;;;;5052032;28;43385;-77
2022/09/27 01:06:30;;;;;;;1.30;1.30;;;20.10;63.30;;;;;;5060286;28;43427;-76
2022/09/27 01:08:59;;;;;;;1.50;1.50;;;20.00;62.70;;;;;;5059133;28;43557;-76
2022/09/27 01:11:35;;;;;;;1.40;1.40;;;20.00;62.70;;;;;;5059065;28;46009;-77
2022/09/27 01:14:47;;;;;;;1.40;1.40;;;20.10;62.40;;;;;;5035669;28;43389;-76
2022/09/27 01:17:24;;;;;;;1.40;1.40;;;20.30;61.90;;;;;;5015265;28;43554;-76
2022/09/27 01:20:35;;;;;;;1.30;1.30;;;20.40;61.50;;;;;;5043506;28;43445;-77
2022/09/27 01:23:12;;;;;;;1.40;1.40;;;20.40;61.30;;;;;;5059236;28;46012;-75
2022/09/27 01:25:53;;;;;;;1.40;1.30;;;20.40;61.60;;;;;;5062393;28;44607;-73
2022/09/27 01:28:23;;;;;;;3.70;1.40;;;20.20;61.70;;;;;;5062762;28;43467;-76
2022/09/27 01:30:54;;;;;;;1.40;1.40;;;20.20;62.00;;;;;;5054783;28;43578;-77
2022/09/27 01:33:38;;;;;;;1.30;1.30;;;20.10;62.20;;;;;;5038331;28;45570;-77
2022/09/27 01:36:17;;;;;;;2.27;1.60;;;20.10;62.20;;;;;;5058283;28;45247;-76
2022/09/27 01:38:49;;;;;;;1.33;1.30;;;20.10;62.30;;;;;;5032764;28;43497;-74
2022/09/27 01:41:24;;;;;;;1.40;1.33;;;20.00;62.40;;;;;;5062651;28;43571;-75
2022/09/27 01:43:56;;;;;;;1.53;1.50;;;20.00;62.40;;;;;;5049363;28;43561;-76
2022/09/27 01:46:31;;;;;;;1.30;1.30;;;20.00;62.70;;;;;;5062468;28;43459;-76
2022/09/27 01:49:18;;;;;;;1.30;1.30;;;20.10;62.50;;;;;;5059347;28;43360;-77
2022/09/27 01:51:48;;;;;;;1.57;1.57;;;20.20;62.10;;;;;;5036154;28;43461;-75
2022/09/27 01:54:19;;;;;;;1.70;1.60;;;20.30;61.80;;;;;;5063517;28;45708;-74
2022/09/27 01:56:57;;;;;;;1.17;1.17;;;20.30;61.70;;;;;;5048243;28;43488;-77
2022/09/27 01:59:31;;;;;;;1.30;1.30;;;20.20;61.90;;;;;;5058946;28;43416;-74
2022/09/27 02:02:34;;;;;;;1.50;1.50;;;20.20;61.90;;;;;;5049217;28;43504;-78
2022/09/27 02:05:37;;;;;;;1.20;1.20;;;20.20;61.90;;;;;;5031273;28;43836;-74
2022/09/27 02:08:19;;;;;;;1.30;1.30;;;20.10;62.00;;;;;;5059244;28;44240;-74
2022/09/27 02:10:47;;;;;;;1.40;1.40;;;20.10;62.20;;;;;;5060778;28;43420;-75
2022/09/27 02:13:20;;;;;;;1.50;1.50;;;20.00;62.40;;;;;;5050766;28;43544;-74
2022/09/27 02:15:55;;;;;;;1.30;1.27;;;20.00;62.30;;;;;;5041843;28;44056;-76
2022/09/27 02:18:40;;;;;;;1.37;1.37;;;20.10;62.40;;;;;;5058633;28;44536;-75
2022/09/27 02:21:08;;;;;;;1.30;1.30;;;20.00;62.40;;;;;;5030515;28;43306;-76
2022/09/27 02:23:39;;;;;;;1.47;1.40;;;20.00;62.40;;;;;;5032214;28;43617;-73
2022/09/27 02:26:14;;;;;;;1.33;1.33;;;19.90;62.50;;;;;;5032506;28;43998;-75
2022/09/27 02:28:43;;;;;;;1.40;1.40;;;19.90;62.70;;;;;;5058080;28;43604;-76
2022/09/27 02:31:18;;;;;;;1.40;1.40;;;20.00;62.50;;;;;;5048588;28;43337;-76
2022/09/27 02:33:50;;;;;;;3.20;1.40;;;20.10;62.10;;;;;;5041624;28;43558;-75
2022/09/27 02:36:18;;;;;;;1.30;1.30;;;20.20;61.80;;;;;;5059488;28;45635;-76
2022/09/27 02:38:46;;;;;;;1.50;1.50;;;20.20;61.80;;;;;;5051101;28;44482;-77
2022/09/27 02:41:18;;;;;;;1.60;1.60;;;20.10;61.90;;;;;;5030377;28;43796;-74
2022/09/27 02:43:48;;;;;;;1.30;1.30;;;20.10;62.00;;;;;;5057940;28;44033;-75
2022/09/27 02:46:30;;;;;;;1.40;1.40;;;20.10;62.00;;;;;;5035891;28;44009;-75
2022/09/27 02:49:04;;;;;;;1.30;1.30;;;20.10;62.00;;;;;;5062523;28;43437;-75
2022/09/27 02:51:38;;;;;;;1.33;1.33;;;20.00;62.10;;;;;;5036470;28;43452;-76
2022/09/27 02:54:13;;;;;;;1.40;1.40;;;20.00;62.40;;;;;;5036135;28;43424;-74
2022/09/27 02:57:04;;;;;;;1.47;1.47;;;20.00;62.50;;;;;;5048623;28;43607;-75
2022/09/27 03:00:12;;;;;;;1.40;1.40;;;20.10;62.30;;;;;;5030251;28;43366;-76
2022/09/27 03:03:01;;;;;;;1.97;1.93;;;20.20;61.90;;;;;;5060095;28;43471;-76
2022/09/27 03:05:32;;;;;;;1.30;1.30;;;20.20;61.80;;;;;;5048856;28;43432;-74
2022/09/27 03:08:01;;;;;;;1.60;1.50;;;20.10;61.80;;;;;;5060166;28;44073;-75
2022/09/27 03:10:29;;;;;;;1.50;1.50;;;20.10;62.00;;;;;;5063611;28;44542;-77
2022/09/27 03:12:58;;;;;;;1.30;1.30;;;20.10;62.00;;;;;;5061822;28;43465;-77
2022/09/27 03:15:27;;;;;;;1.40;1.40;;;20.10;62.00;;;;;;5041083;28;43598;-75
2022/09/27 03:18:00;;;;;;;1.30;1.30;;;20.00;62.70;;;;;;5048978;28;43611;-74
2022/09/27 03:21:06;;;;;;;1.37;1.37;;;20.00;62.30;;;;;;4991202;28;43799;-73
2022/09/27 03:23:34;;;;;;;1.40;1.40;;;19.90;62.40;;;;;;5031828;28;43565;-76
2022/09/27 03:26:02;;;;;;;1.40;1.40;;;20.00;62.40;;;;;;5047721;28;43477;-74
2022/09/27 03:28:30;;;;;;;1.30;1.30;;;19.90;62.30;;;;;;5031281;28;46581;-76
2022/09/27 03:30:58;;;;;;;1.30;1.30;;;19.90;62.40;;;;;;5058777;28;44484;-77
2022/09/27 03:33:47;;;;;;;1.33;1.30;;;19.90;62.50;;;;;;5042980;28;43392;-76
2022/09/27 03:36:16;;;;;;;1.60;1.57;;;19.90;63.50;;;;;;5037997;28;43475;-76
2022/09/27 03:38:44;;;;;;;1.40;1.30;;;19.90;62.60;;;;;;5053015;28;45324;-75
2022/09/27 03:41:16;;;;;;;1.40;1.40;;;20.00;62.30;;;;;;5046809;28;44382;-74
2022/09/27 03:43:44;;;;;;;1.50;1.50;;;20.10;61.90;;;;;;5036339;28;43386;-76
2022/09/27 03:46:12;;;;;;;1.60;1.50;;;20.10;62.40;;;;;;5053972;28;43586;-75
2022/09/27 03:48:41;;;;;;;1.27;1.27;;;20.10;61.70;;;;;;5052162;28;44058;-76
2022/09/27 03:51:11;;;;;;;1.50;1.50;;;20.10;62.00;;;;;;5036236;28;44913;-75
2022/09/27 03:53:41;;;;;;;1.23;1.23;;;20.10;61.90;;;;;;5049425;28;43510;-75
2022/09/27 03:56:09;;;;;;;1.40;1.40;;;20.10;61.90;;;;;;5048337;28;43412;-77
2022/09/27 03:58:37;;;;;;;1.27;1.27;;;20.00;62.00;;;;;;5056200;28;44039;-75
2022/09/27 04:01:06;;;;;;;1.50;1.50;;;20.00;62.20;;;;;;5046634;28;43487;-75
2022/09/27 04:03:36;;;;;;;1.30;1.30;;;19.90;62.40;;;;;;5061378;28;43408;-73
2022/09/27 04:06:25;;;;;;;1.53;1.53;;;19.90;62.40;;;;;;5053685;28;43522;-77
2022/09/27 04:08:55;;;;;;;1.33;1.33;;;19.90;62.40;;;;;;5058121;28;43700;-75
2022/09/27 04:11:30;;;;;;;1.50;1.43;;;19.90;62.40;;;;;;5054420;28;43455;-75
2022/09/27 04:13:58;;;;;;;1.40;1.40;;;19.90;62.50;;;;;;5062189;28;43427;-75
2022/09/27 04:16:27;;;;;;;1.60;1.50;;;19.80;62.60;;;;;;5042782;28;43540;-75
2022/09/27 04:19:15;;;;;;;1.47;1.47;;;19.90;62.60;;;;;;5049548;28;43991;-76
2022/09/27 04:21:47;;;;;;;1.50;1.50;;;20.00;62.30;;;;;;5050940;28;43451;-76
2022/09/27 04:24:18;;;;;;;1.40;1.30;;;20.10;62.60;;;;;;5059359;28;43532;-76
2022/09/27 04:27:07;;;;;;;1.40;1.40;;;20.20;61.40;;;;;;5057554;28;43523;-75
2022/09/27 04:29:45;;;;;;;1.50;1.50;;;20.20;61.20;;;;;;5036587;28;43919;-76
2022/09/27 04:32:41;;;;;;;1.50;1.50;;;20.20;61.40;;;;;;5047801;28;43932;-76
2022/09/27 04:38:13;;;;;;;1.40;1.40;;;20.00;61.90;;;;;;5032866;28;43378;-76
2022/09/27 04:40:43;;;;;;;1.40;1.33;;;20.00;62.20;;;;;;5037274;28;43886;-76
2022/09/27 04:43:12;;;;;;;1.33;1.33;;;19.90;62.10;;;;;;5048297;28;43498;-75
2022/09/27 04:45:40;;;;;;;1.40;1.40;;;19.90;62.20;;;;;;5050657;28;44029;-76
2022/09/27 04:48:08;;;;;;;1.40;1.40;;;19.90;63.00;;;;;;5037119;28;43514;-75
2022/09/27 04:50:36;;;;;;;1.40;1.40;;;19.80;62.30;;;;;;5065712;28;45833;-76
2022/09/27 04:53:04;;;;;;;1.23;1.23;;;19.80;62.50;;;;;;5031042;28;44596;-73
2022/09/27 04:55:32;;;;;;;1.50;1.43;;;19.80;62.50;;;;;;5064086;28;43356;-74
2022/09/27 04:58:03;;;;;;;1.60;1.50;;;19.80;62.40;;;;;;5034048;28;43429;-77
2022/09/27 05:00:31;;;;;;;1.30;1.30;;;19.80;62.40;;;;;;5066131;28;45397;-75
2022/09/27 05:03:15;;;;;;;1.20;1.20;;;19.80;62.50;;;;;;5042568;28;43447;-75
2022/09/27 05:05:55;;;;;;;1.40;1.40;;;19.80;62.50;;;;;;5051253;28;43455;-76
2022/09/27 05:08:23;;;;;;;1.20;1.20;;;19.80;62.80;;;;;;5061753;28;43546;-74
2022/09/27 05:11:14;;;;;;;1.30;1.30;;;19.80;62.50;;;;;;5065464;28;43908;-76
2022/09/27 05:14:01;;;;;;;1.30;1.30;;;19.90;62.10;;;;;;5032862;28;43418;-75
2022/09/27 05:16:31;;;;;;;1.47;1.47;;;20.10;61.70;;;;;;5046503;28;43376;-75
2022/09/27 05:19:19;;;;;;;1.20;1.20;;;20.20;61.40;;;;;;5050532;28;43401;-76
2022/09/27 05:22:07;;;;;;;1.30;1.30;;;20.10;61.20;;;;;;5021231;28;43590;-75
2022/09/27 05:24:37;;;;;;;1.30;1.30;;;20.10;61.60;;;;;;5033341;28;43382;-75
2022/09/27 05:27:07;;;;;;;1.20;1.20;;;20.00;61.80;;;;;;5056131;28;43425;-75
2022/09/27 05:29:36;;;;;;;1.40;1.40;;;19.90;61.90;;;;;;5046751;28;43460;-72
2022/09/27 05:32:30;;;;;;;1.40;1.40;;;19.90;62.20;;;;;;5049780;28;43671;-75
2022/09/27 05:35:34;;;;;;;1.20;1.20;;;19.90;62.20;;;;;;4998829;28;43967;-75
2022/09/27 05:38:03;;;;;;;1.40;1.40;;;19.80;62.20;;;;;;5019277;28;44003;-76
2022/09/27 05:40:35;;;;;;;1.40;1.40;;;19.80;62.30;;;;;;5048408;28;43915;-75
2022/09/27 05:43:09;;;;;;;1.17;1.17;;;19.80;62.40;;;;;;5055076;28;43878;-74
2022/09/27 05:45:39;;;;;;;1.40;1.40;;;19.80;62.60;;;;;;5033358;28;44121;-76
2022/09/27 05:48:07;;;;;;;1.30;1.30;;;19.80;62.30;;;;;;5046067;28;43344;-76
2022/09/27 05:50:45;;;;;;;1.40;1.40;;;20.00;62.00;;;;;;5034547;28;43507;-76
2022/09/27 05:53:13;;;;;;;1.30;1.30;;;20.00;61.70;;;;;;5048515;28;45686;-74
2022/09/27 05:55:42;;;;;;;1.57;1.50;;;20.00;61.80;;;;;;5047570;28;43372;-77
2022/09/27 05:58:12;;;;;;;1.20;1.20;;;20.00;62.00;;;;;;5061665;28;43431;-75
2022/09/27 06:00:48;;;;;;;1.30;1.30;;;20.00;62.70;;;;;;5029248;28;43558;-76
2022/09/27 06:03:34;;;;;;;1.10;1.10;;;19.90;62.00;;;;;;5051337;28;43529;-76
2022/09/27 06:06:37;;;;;;;1.10;1.10;;;19.90;62.10;;;;;;5001379;28;43538;-75
2022/09/27 06:09:10;;;;;;;1.20;1.20;;;19.90;62.30;;;;;;5028301;28;43450;-75
2022/09/27 06:11:38;;;;;;;1.40;1.40;;;19.80;62.40;;;;;;5056055;28;43531;-76
2022/09/27 06:14:12;;;;;;;1.43;1.33;;;19.80;62.40;;;;;;5057436;28;45980;-77
2022/09/27 06:16:54;;;;;;;1.30;1.30;;;19.80;62.40;;;;;;5044810;28;43476;-77
2022/09/27 06:19:27;;;;;;;1.50;1.50;;;19.80;63.20;;;;;;5047938;28;44010;-77
2022/09/27 06:21:56;;;;;;;1.33;1.33;;;19.80;62.50;;;;;;5034200;28;43539;-76
2022/09/27 06:24:30;;;;;;;1.40;1.40;;;19.70;62.70;;;;;;5039615;28;43901;-76
2022/09/27 06:27:03;;;;;;;1.30;1.30;;;19.70;62.70;;;;;;5041735;28;43378;-75
2022/09/27 06:29:47;;;;;;;1.60;1.60;;;19.80;62.40;;;;;;5058494;28;43407;-74
2022/09/27 06:32:31;;;;;;;1.33;1.30;;;20.00;62.00;;;;;;5062841;28;44016;-77
2022/09/27 06:35:15;;;;;;;1.23;1.23;;;20.10;61.50;;;;;;5045892;28;43840;-74
2022/09/27 06:37:43;;;;;;;1.30;1.30;;;20.20;61.20;;;;;;5047951;28;43445;-76
2022/09/27 06:40:11;;;;;;;1.47;1.47;;;20.10;61.30;;;;;;5051890;28;44140;-76
2022/09/27 06:43:02;;;;;;;1.30;1.30;;;20.00;61.50;;;;;;5033580;28;43459;-76
2022/09/27 06:46:04;;;;;;;1.30;1.30;;;19.90;61.80;;;;;;5014071;28;43895;-74
2022/09/27 06:48:52;;;;;;;1.40;1.40;;;19.90;62.10;;;;;;5051481;28;43459;-75
2022/09/27 06:51:21;;;;;;;1.40;1.40;;;19.90;62.20;;;;;;5056910;28;43360;-74
2022/09/27 06:53:49;;;;;;;1.20;1.20;;;19.80;62.20;;;;;;5055262;28;43486;-74
2022/09/27 06:56:17;;;;;;;1.17;1.17;;;19.80;62.30;;;;;;5067810;28;43814;-75
2022/09/27 07:01:42;;;;;;;1.20;1.20;;;19.70;62.40;;;;;;5053911;28;43484;-75
2022/09/27 07:04:30;;;;;;;1.40;1.40;;;19.70;62.60;;;;;;5047920;28;43419;-76
2022/09/27 07:07:26;;;;;;;1.20;1.20;;;19.90;62.30;;;;;;5037676;28;44017;-77
2022/09/27 07:09:54;;;;;;;1.20;1.20;;;19.90;62.70;;;;;;5058576;28;45145;-75
2022/09/27 07:12:26;;;;;;;1.40;1.40;;;19.90;61.80;;;;;;5041839;28;43411;-75
2022/09/27 07:14:54;;;;;;;1.10;1.10;;;19.90;62.00;;;;;;5065505;28;43452;-76
2022/09/27 07:17:22;;;;;;;1.23;1.23;;;19.80;62.00;;;;;;5037387;28;45461;-75
2022/09/27 07:19:53;;;;;;;1.30;1.30;;;19.90;62.10;;;;;;5059385;28;44367;-74
2022/09/27 07:22:22;;;;;;;1.20;1.20;;;19.80;62.00;;;;;;5045642;28;43361;-76
2022/09/27 07:24:58;;;;;;;1.17;1.17;;;19.80;62.20;;;;;;5056401;28;43967;-76
2022/09/27 07:27:27;;;;;;;1.30;1.30;;;19.80;62.40;;;;;;5063067;28;46036;-76
2022/09/27 07:29:55;;;;;;;1.20;1.20;;;19.70;62.50;;;;;;5051408;28;43341;-76
2022/09/27 07:32:25;;;;;;;1.30;1.30;;;19.80;62.40;;;;;;5041298;28;43453;-76
2022/09/27 07:34:55;;;;;;;1.30;1.30;;;19.90;62.10;;;;;;5052351;28;43440;-76
2022/09/27 07:37:23;;;;;;;1.20;1.20;;;20.00;61.90;;;;;;5056993;28;43952;-77
2022/09/27 07:39:51;;;;;;;1.27;1.27;;;19.90;61.70;;;;;;5052429;28;43455;-76
2022/09/27 07:42:19;;;;;;;1.30;1.30;;;19.90;61.90;;;;;;5063915;28;43419;-75
2022/09/27 07:44:51;;;;;;;1.23;1.23;;;19.90;62.00;;;;;;5032200;28;43577;-73
2022/09/27 07:47:38;;;;;;;1.20;1.20;;;19.90;61.90;;;;;;5053986;28;43482;-76
2022/09/27 07:50:12;;;;;;;1.10;1.10;;;19.90;62.10;;;;;;5036820;28;44618;-75
2022/09/27 07:53:03;;;;;;;1.23;1.23;;;19.80;62.10;;;;;;5049624;28;43463;-75
2022/09/27 07:55:36;;;;;;;1.30;1.30;;;19.70;62.20;;;;;;5067436;28;43478;-76
2022/09/27 07:58:13;;;;;;;1.10;1.10;;;19.70;62.30;;;;;;5067016;28;45731;-75
2022/09/27 08:00:41;;;;;;;1.20;1.20;;;19.70;62.30;;;;;;5056980;28;43461;-75
2022/09/27 08:03:13;;;;;;;1.20;1.20;;;19.70;62.30;;;;;;5060412;28;43969;-76
2022/09/27 08:05:43;;;;;;;1.30;1.30;;;19.70;62.40;;;;;;5051244;28;43392;-72
2022/09/27 08:08:11;;;;;;;1.37;1.37;;;19.70;62.50;;;;;;5056063;28;43823;-75
2022/09/27 08:10:43;;;;;;;1.20;1.20;;;19.70;62.70;;;;;;5060658;28;44965;-74
2022/09/27 08:13:12;;;;;;;1.17;1.17;;;19.70;62.40;;;;;;5065869;28;43431;-75
2022/09/27 08:15:41;;;;;;;1.30;1.30;;;19.80;62.00;;;;;;5054736;28;43591;-76
2022/09/27 08:18:09;;;;;;;1.13;1.13;;;19.90;61.70;;;;;;5046456;28;45391;-75
2022/09/27 08:20:58;;;;;;;1.20;1.20;;;20.00;61.60;;;;;;5063326;28;43908;-76
2022/09/27 08:23:41;;;;;;;1.20;1.20;;;19.90;61.70;;;;;;5065797;28;43388;-77
2022/09/27 08:26:20;;;;;;;1.20;1.20;;;19.90;61.70;;;;;;5052737;28;43427;-76
2022/09/27 08:28:54;;;;;;;1.10;1.10;;;19.90;62.40;;;;;;5051777;28;43852;-76
2022/09/27 08:31:25;;;;;;;1.30;1.30;;;19.90;61.90;;;;;;5046686;28;43473;-76
2022/09/27 08:33:56;;;;;;;1.20;1.20;;;19.80;62.00;;;;;;5058588;28;43479;-76
2022/09/27 08:36:27;;;;;;;1.50;1.50;;;19.70;62.80;;;;;;5050397;28;43459;-75
2022/09/27 08:38:57;;;;;;;1.20;1.20;;;19.70;62.20;;;;;;5046653;28;45030;-77
2022/09/27 08:41:35;;;;;;;1.40;1.40;;;19.70;62.20;;;;;;5066608;28;43426;-75
2022/09/27 08:44:09;;;;;;;1.00;1.00;;;19.70;62.40;;;;;;5049831;28;43989;-75
2022/09/27 08:46:49;;;;;;;1.40;1.40;;;19.70;62.40;;;;;;5063226;28;43579;-75
2022/09/27 08:49:18;;;;;;;1.23;1.23;;;19.60;62.30;;;;;;5058012;28;45266;-76
2022/09/27 08:51:49;;;;;;;1.10;1.10;;;19.60;62.50;;;;;;5060870;28;43968;-76
2022/09/27 08:54:20;;;;;;;1.23;1.23;;;19.70;62.50;;;;;;5045345;28;43522;-76
2022/09/27 08:56:48;;;;;;;1.10;1.10;;;19.60;62.40;;;;;;5052247;28;43463;-75
2022/09/27 08:59:20;;;;;;;1.10;1.10;;;19.60;62.50;;;;;;5059448;28;43904;-74
2022/09/27 09:01:48;;;;;;;1.10;1.10;;;19.60;62.50;;;;;;5053869;28;44867;-75
2022/09/27 09:04:31;;;;;;;1.53;1.53;;;19.60;62.80;;;;;;5063286;28;44016;-73
2022/09/27 09:07:05;;;;;;;1.37;1.37;;;19.60;62.60;;;;;;5039230;28;43965;-76
2022/09/27 09:09:37;;;;;;;1.10;1.10;;;19.80;62.30;;;;;;5063481;28;45668;-75
2022/09/27 09:12:46;;;;;;;1.30;1.30;;;19.90;61.90;;;;;;5052235;28;43365;-75
2022/09/27 09:15:26;;;;;;;1.40;1.40;;;20.00;61.70;;;;;;5062269;28;43426;-75
2022/09/27 09:18:15;;;;;;;1.30;1.30;;;19.90;61.70;;;;;;5052356;28;43459;-75
2022/09/27 09:21:01;;;;;;;1.27;1.27;;;19.90;62.00;;;;;;5032396;28;45750;-76
2022/09/27 09:23:56;;;;;;;1.07;1.07;;;19.80;61.70;;;;;;5062950;28;44348;-74
2022/09/27 09:26:28;;;;;;;1.20;1.20;;;19.80;61.90;;;;;;5033821;28;44026;-77
2022/09/27 09:29:05;;;;;;;1.30;1.30;;;19.80;62.10;;;;;;5060790;28;43964;-76
2022/09/27 09:31:38;;;;;;;1.47;1.47;;;19.70;62.20;;;;;;5054437;28;43691;-75
2022/09/27 09:34:09;;;;;;;1.30;1.30;;;19.70;62.50;;;;;;5062855;28;45005;-74
2022/09/27 09:36:40;;;;;;;1.10;1.10;;;19.70;62.40;;;;;;5051320;28;43454;-75
2022/09/27 09:39:13;;;;;;;1.10;1.10;;;19.70;62.40;;;;;;5053413;28;43409;-74
2022/09/27 09:41:43;;;;;;;1.20;1.20;;;19.60;62.40;;;;;;5047536;28;45459;-73
2022/09/27 09:44:15;;;;;;;1.30;1.30;;;19.60;62.50;;;;;;5052466;28;45079;-75
2022/09/27 09:46:45;;;;;;;1.30;1.30;;;19.60;62.80;;;;;;5046263;28;43822;-74
2022/09/27 09:49:16;;;;;;;1.40;1.40;;;19.60;62.60;;;;;;5059368;28;43930;-75
2022/09/27 09:51:48;;;;;;;1.20;1.20;;;19.70;62.40;;;;;;5047011;28;46384;-74
2022/09/27 09:54:23;;;;;;;1.23;1.23;;;19.80;61.90;;;;;;5060406;28;44697;-75
2022/09/27 09:56:58;;;;;;;1.00;1.00;;;20.00;61.40;;;;;;5061857;28;43431;-74
2022/09/27 09:59:28;;;;;;;1.40;1.40;;;20.00;61.10;;;;;;5034314;28;43907;-76
2022/09/27 10:01:59;;;;;;;1.20;1.20;;;20.00;61.40;;;;;;5057716;28;44050;-77
2022/09/27 10:04:28;;;;;;;1.20;1.20;;;19.90;61.60;;;;;;5057042;28;44010;-76
2022/09/27 10:06:58;;;;;;;1.20;1.20;;;19.80;61.70;;;;;;5064789;28;43488;-76
2022/09/27 10:09:32;;;;;;;1.10;1.10;;;19.70;62.00;;;;;;5048444;28;43476;-76
2022/09/27 10:12:20;;;;;;;1.13;1.13;;;19.70;62.30;;;;;;5049933;28;43732;-76
2022/09/27 10:14:49;;;;;;;1.10;1.10;;;19.70;62.30;;;;;;5042660;28;43643;-74
2022/09/27 10:17:19;;;;;;;1.20;1.20;;;19.70;62.40;;;;;;5053417;28;43453;-74
2022/09/27 10:19:48;;;;;;;1.20;1.20;;;19.60;62.40;;;;;;5047625;28;43468;-77
2022/09/27 10:22:18;;;;;;;1.10;1.10;;;19.60;63.20;;;;;;5042602;28;44080;-75
2022/09/27 10:24:56;;;;;;;1.40;1.40;;;19.60;62.80;;;;;;5038585;28;43466;-74
2022/09/27 10:27:45;;;;;;;1.43;1.33;;;19.70;62.60;;;;;;5065885;28;43434;-75
2022/09/27 10:30:27;;;;;;;1.80;1.30;;;19.80;61.40;;;;;;5040803;28;43843;-74
2022/09/27 10:32:58;;;;;;;4.93;1.40;;;19.90;61.60;;;;;;5045253;28;44054;-76
2022/09/27 10:35:58;;;;;;;1.37;1.37;;;19.80;61.60;;;;;;5041428;28;43824;-76
2022/09/27 10:38:31;;;;;;;1.20;1.20;;;19.70;61.90;;;;;;5068429;28;43809;-73
2022/09/27 10:41:23;;;;;;;1.27;1.27;;;19.80;62.00;;;;;;5045921;28;43448;-74
2022/09/27 10:43:58;;;;;;;1.10;1.10;;;19.70;62.00;;;;;;5056491;28;43918;-76
2022/09/27 10:46:31;;;;;;;1.20;1.20;;;19.70;62.10;;;;;;5053857;28;43418;-75
2022/09/27 10:49:18;;;;;;;1.30;1.30;;;19.60;62.20;;;;;;5046229;28;43411;-74
2022/09/27 10:51:50;;;;;;;1.27;1.27;;;19.60;62.40;;;;;;5048107;28;43886;-75
2022/09/27 10:54:19;;;;;;;1.43;1.43;;;19.60;63.10;;;;;;5065284;28;44001;-75
2022/09/27 10:56:57;;;;;;;1.67;1.53;;;19.60;62.40;;;;;;5049277;28;44597;-75
2022/09/27 10:59:25;;;;;;;1.80;1.70;;;19.60;62.50;;;;;;5047301;28;43491;-76
2022/09/27 11:01:53;;;;;;;7.30;2.63;;;19.50;62.40;;;;;;5033839;28;43437;-75
2022/09/27 11:04:38;;;;;;;5.30;2.20;;;19.50;62.40;;;;;;5040508;28;44056;-77
2022/09/27 11:07:13;;;;;;;4.23;2.50;;;19.50;61.40;;;;;;5041784;28;44276;-73
2022/09/27 11:09:46;;;;;;;3.70;1.93;;;19.60;61.60;;;;;;5056687;28;43424;-77
2022/09/27 11:12:19;;;;;;;4.27;2.07;;;19.70;62.10;;;;;;5054812;28;43525;-77
2022/09/27 11:14:58;;;;;;;2.77;2.50;;;19.80;61.40;;;;;;5043387;28;44151;-76
2022/09/27 11:17:30;;;;;;;2.20;2.00;;;19.70;61.40;;;;;;5060510;28;43464;-76
2022/09/27 11:20:16;;;;;;;2.43;2.23;;;19.70;61.70;;;;;;5055938;28;43528;-75
2022/09/27 11:22:58;;;;;;;2.60;1.93;;;19.70;61.70;;;;;;5050769;28;43547;-75
2022/09/27 11:25:33;;;;;;;2.00;1.80;;;19.70;61.80;;;;;;5063659;28;43826;-75
2022/09/27 11:28:08;;;;;;;2.33;1.70;;;19.60;61.90;;;;;;5048363;28;44355;-74
2022/09/27 11:30:42;;;;;;;2.00;1.80;;;19.60;62.00;;;;;;5063525;28;43499;-75
2022/09/27 11:33:46;;;;;;;2.17;1.97;;;19.60;62.30;;;;;;5066617;28;44024;-72
2022/09/27 11:36:17;;;;;;;2.20;2.00;;;19.60;62.20;;;;;;5040050;28;44083;-76
2022/09/27 11:38:52;;;;;;;1.80;1.70;;;19.60;62.30;;;;;;5059616;28;43457;-75
2022/09/27 11:41:45;;;;;;;2.37;1.80;;;19.50;62.20;;;;;;5041464;28;43481;-74
2022/09/27 11:44:42;;;;;;;2.97;1.80;;;19.50;62.30;;;;;;5058151;28;43471;-76
2022/09/27 11:47:16;;;;;;;2.43;2.07;;;19.50;62.50;;;;;;5066577;28;44016;-77
2022/09/27 11:50:14;;;;;;;2.20;2.10;;;19.50;63.20;;;;;;5061466;28;43599;-76
2022/09/27 11:52:49;;;;;;;2.20;2.00;;;19.60;62.20;;;;;;5059942;28;44079;-76
2022/09/27 11:55:23;;;;;;;2.00;1.90;;;19.80;61.80;;;;;;5059756;28;43408;-76
2022/09/27 11:57:56;;;;;;;2.43;2.00;;;19.90;61.20;;;;;;5062308;28;44919;-77
2022/09/27 12:00:28;;;;;;;1.90;1.80;;;20.00;61.00;;;;;;5040066;28;43919;-75
2022/09/27 12:03:26;;;;;;;2.00;1.90;;;19.90;61.00;;;;;;5062006;28;44367;-74
2022/09/27 12:06:04;;;;;;;1.90;1.80;;;19.90;61.40;;;;;;5059267;28;43961;-75
2022/09/27 12:08:45;;;;;;;1.50;1.50;;;19.80;61.60;;;;;;5039202;28;44056;-75
2022/09/27 12:11:17;;;;;;;1.70;1.60;;;19.70;61.80;;;;;;5038259;28;44779;-76
2022/09/27 12:13:46;;;;;;;1.77;1.67;;;19.70;62.10;;;;;;5046390;28;43953;-76
2022/09/27 12:16:17;;;;;;;2.27;2.00;;;19.60;61.90;;;;;;5050404;28;44040;-76
2022/09/27 12:18:46;;;;;;;1.40;1.40;;;19.60;62.10;;;;;;5038214;28;45355;-75
2022/09/27 12:21:37;;;;;;;1.70;1.60;;;19.60;62.20;;;;;;5064050;28;43466;-75
2022/09/27 12:24:06;;;;;;;1.50;1.50;;;19.50;62.20;;;;;;5058498;28;43476;-73
2022/09/27 12:26:46;;;;;;;1.77;1.67;;;19.50;62.50;;;;;;5057203;28;43537;-75
2022/09/27 12:29:20;;;;;;;1.50;1.47;;;19.50;63.10;;;;;;5039233;28;44036;-75
2022/09/27 12:31:54;;;;;;;1.73;1.73;;;19.50;62.40;;;;;;5063858;28;44926;-77
2022/09/27 12:34:24;;;;;;;1.60;1.50;;;19.50;62.50;;;;;;5043113;28;43412;-75
2022/09/27 12:36:57;;;;;;;2.13;2.03;;;19.50;62.50;;;;;;5031625;28;43563;-76
2022/09/27 12:39:27;;;;;;;1.60;1.60;;;19.50;62.80;;;;;;5051824;28;43787;-76
2022/09/27 12:42:10;;;;;;;1.93;1.70;;;19.50;62.60;;;;;;5060814;28;43374;-75
2022/09/27 12:44:43;;;;;;;1.60;1.50;;;19.60;62.20;;;;;;5063605;28;43416;-76
2022/09/27 12:47:46;;;;;;;1.60;1.50;;;19.80;61.80;;;;;;5037938;28;43417;-76
2022/09/27 12:50:23;;;;;;;1.70;1.70;;;19.90;61.60;;;;;;5028818;28;44043;-76
2022/09/27 12:52:53;;;;;;;1.60;1.60;;;19.80;61.60;;;;;;5056006;28;44869;-76
2022/09/27 12:55:45;;;;;;;1.70;1.60;;;19.70;61.80;;;;;;5036789;28;43421;-74
2022/09/27 12:58:42;;;;;;;1.70;1.60;;;19.70;61.70;;;;;;5065987;28;43420;-75
2022/09/27 13:01:17;;;;;;;1.83;1.73;;;19.70;61.90;;;;;;5042021;28;43911;-76
2022/09/27 13:03:57;;;;;;;1.70;1.60;;;19.70;62.10;;;;;;5051906;28;44370;-76
2022/09/27 13:06:37;;;;;;;1.80;1.70;;;19.60;62.20;;;;;;5053506;28;43922;-77
2022/09/27 13:09:45;;;;;;;1.60;1.60;;;19.50;62.40;;;;;;5060007;28;43457;-75
2022/09/27 13:12:15;;;;;;;1.60;1.60;;;19.60;62.40;;;;;;5053542;28;43901;-75
2022/09/27 13:14:46;;;;;;;1.50;1.50;;;19.50;62.30;;;;;;5038048;28;44587;-75
2022/09/27 13:17:36;;;;;;;1.43;1.40;;;19.50;62.40;;;;;;5059702;28;43816;-74
2022/09/27 13:20:48;;;;;;;1.57;1.57;;;19.50;62.40;;;;;;5045405;28;43565;-74
2022/09/27 13:24:02;;;;;;;1.80;1.70;;;19.50;62.70;;;;;;5037663;28;43672;-75
2022/09/27 13:26:47;;;;;;;1.50;1.50;;;19.50;62.50;;;;;;5053727;28;43956;-76
2022/09/27 13:29:34;;;;;;;1.60;1.60;;;19.50;62.50;;;;;;5063034;28;43390;-76
2022/09/27 13:32:27;;;;;;;1.57;1.50;;;19.50;62.60;;;;;;5062445;28;43626;-76
2022/09/27 13:35:12;;;;;;;1.27;1.27;;;19.50;62.80;;;;;;5054228;28;43823;-76
2022/09/27 13:37:49;;;;;;;1.57;1.57;;;19.50;62.70;;;;;;5061887;28;44477;-76
2022/09/27 13:40:31;;;;;;;1.40;1.40;;;19.60;62.30;;;;;;5056081;28;44035;-74